This is the latest recevied weather packets stored in our database for station/object LU1HKO-13. If no packets are shown the sender has not sent any weather packets the latest 10 day(s).
| Time | Temp. | Humidity | Pressure | Rain* | Wind** | Luminosity | Snow |
|---|---|---|---|---|---|---|---|
| 1777874469 | 11.67° C | 64% | 1013.3 hPa | 0 mm | - | - | - |
| 1777872667 | 12.22° C | 61% | 1013.4 hPa | 0 mm | - | - | - |
| 1777872040 | 12.22° C | 61% | 1013.5 hPa | 0 mm | - | - | - |
| 1777863052 | 13.33° C | 60% | 1015.7 hPa | 0 mm | - | - | - |
| 1777861250 | 13.33° C | 60% | 1016.2 hPa | 0 mm | - | - | - |
| 1777853457 | 14.44° C | 54% | 1015.8 hPa | 0 mm | - | - | - |
| 1777849874 | 15.56° C | 50% | 1015.8 hPa | 0 mm | - | - | - |
| 1777847445 | 16.67° C | 45% | 1015.5 hPa | 0 mm | - | - | - |
| 1777846231 | 16.67° C | 43% | 1015.7 hPa | 0 mm | - | - | - |
| 1777845076 | 17.22° C | 40% | 1015.6 hPa | 0 mm | - | - | - |
| 1777843863 | 18.33° C | 39% | 1014.9 hPa | 0 mm | - | - | - |
| 1777842080 | 19.44° C | 36% | 1015.4 hPa | 0 mm | - | - | - |
| 1777839064 | 20° C | 34% | 1016.1 hPa | 0 mm | - | - | - |
| 1777838457 | 20° C | 33% | 1016.1 hPa | 0 mm | - | - | - |
| 1777837850 | 20° C | 32% | 1016.1 hPa | 0 mm | - | - | - |
| 1777834267 | 21.67° C | 29% | 1016.1 hPa | 0 mm | - | - | - |
| 1777833659 | 21.67° C | 29% | 1016.1 hPa | 0 mm | - | - | - |
| 1777831838 | 22.22° C | 28% | 1016.5 hPa | 0 mm | - | - | - |
| 1777830663 | 21.67° C | 29% | 1016.8 hPa | 0 mm | - | - | - |
| 1777828295 | 21.11° C | 29% | 1018 hPa | 0 mm | - | - | - |
| 1777826433 | 20.56° C | 30% | 1018.6 hPa | 0 mm | - | - | - |
| 1777825218 | 20° C | 30% | 1019.3 hPa | 0 mm | - | - | - |
| 1777823457 | 18.89° C | 34% | 1019.9 hPa | 0 mm | - | - | - |
| 1777822242 | 18.33° C | 33% | 1020.3 hPa | 0 mm | - | - | - |
| 1777819266 | 17.78° C | 31% | 1021.5 hPa | 0 mm | - | - | - |
* Rain latest hour (hover to see other rain measurements)
** Current wind speed in m/s (hover to see current wind gust speed)